createdAt,value
2023-04-30T00:00:46.807Z,9.65
2023-04-30T00:03:36.529Z,9.63
2023-04-30T00:06:09.405Z,9.63
2023-04-30T00:08:40.891Z,9.52
2023-04-30T00:11:13.653Z,9.48
2023-04-30T00:13:44.244Z,9.41
2023-04-30T00:16:17.208Z,9.36
2023-04-30T00:18:52.456Z,9.32
2023-04-30T00:21:26.125Z,9.31
2023-04-30T00:24:02.483Z,9.25
2023-04-30T00:26:34.802Z,9.21
2023-04-30T00:29:08.090Z,9.14
2023-04-30T00:31:40.521Z,9.14
2023-04-30T00:34:12.135Z,9.08
2023-04-30T00:36:44.762Z,9.03
2023-04-30T00:39:18.116Z,8.98
2023-04-30T00:41:51.373Z,8.90
2023-04-30T00:44:24.995Z,8.86
2023-04-30T00:46:57.534Z,8.81
2023-04-30T00:49:31.660Z,8.79
2023-04-30T00:52:03.701Z,8.71
2023-04-30T00:54:36.747Z,8.62
2023-04-30T00:57:13.353Z,8.53
2023-04-30T00:59:45.598Z,8.46
2023-04-30T01:02:18.877Z,8.39
2023-04-30T01:04:53.224Z,8.32
2023-04-30T01:07:29.277Z,8.32
2023-04-30T01:10:05.334Z,8.31
2023-04-30T01:12:44.741Z,8.27
2023-04-30T01:15:29.047Z,8.23
2023-04-30T01:18:06.926Z,8.20
2023-04-30T01:20:50.140Z,8.14
2023-04-30T01:23:44.221Z,8.12
2023-04-30T01:26:21.965Z,8.04
2023-04-30T01:28:58.952Z,7.90
2023-04-30T01:31:31.283Z,7.78
2023-04-30T01:34:04.060Z,7.73
2023-04-30T01:36:52.406Z,7.71
2023-04-30T01:39:48.075Z,7.65
2023-04-30T01:42:26.284Z,7.58
2023-04-30T01:45:35.224Z,7.53
2023-04-30T01:48:20.388Z,7.45
2023-04-30T01:50:59.418Z,7.38
2023-04-30T01:53:45.803Z,7.32
2023-04-30T01:56:26.404Z,7.32
2023-04-30T01:59:02.743Z,7.30
2023-04-30T02:01:37.124Z,7.25
2023-04-30T02:04:09.054Z,7.22
2023-04-30T02:06:42.874Z,7.13
2023-04-30T02:09:14.579Z,7.12
2023-04-30T02:11:44.383Z,7.11
2023-04-30T02:14:17.380Z,7.01
2023-04-30T02:16:48.297Z,6.95
2023-04-30T02:19:20.860Z,6.99
2023-04-30T02:21:54.662Z,7.00
2023-04-30T02:24:27.653Z,6.96
2023-04-30T02:26:59.783Z,6.94
2023-04-30T02:29:33.588Z,6.93
2023-04-30T02:32:06.500Z,6.89
2023-04-30T02:34:39.374Z,6.85
2023-04-30T02:37:14.040Z,6.81
2023-04-30T02:39:47.609Z,6.76
2023-04-30T02:42:21.333Z,6.74
2023-04-30T02:44:53.022Z,6.70
2023-04-30T02:47:25.571Z,6.64
2023-04-30T02:49:58.045Z,6.64
2023-04-30T02:52:30.115Z,6.64
2023-04-30T02:55:08.983Z,6.58
2023-04-30T02:57:41.315Z,6.51
2023-04-30T03:00:17.493Z,6.46
2023-04-30T03:02:50.973Z,6.46
2023-04-30T03:05:24.620Z,6.44
2023-04-30T03:07:56.136Z,6.42
2023-04-30T03:10:27.569Z,6.43
2023-04-30T03:13:00.047Z,6.42
2023-04-30T03:15:34.010Z,6.35
2023-04-30T03:18:07.256Z,6.32
2023-04-30T03:20:37.780Z,6.29
2023-04-30T03:23:10.287Z,6.30
2023-04-30T03:25:42.376Z,6.30
2023-04-30T03:28:14.411Z,6.28
2023-04-30T03:30:48.614Z,6.24
2023-04-30T03:33:20.658Z,6.19
2023-04-30T03:35:54.071Z,6.16
2023-04-30T03:38:26.097Z,6.16
2023-04-30T03:40:58.631Z,6.18
2023-04-30T03:43:31.006Z,6.17
2023-04-30T03:46:06.572Z,6.15
2023-04-30T03:48:38.145Z,6.13
2023-04-30T03:51:10.779Z,6.11
2023-04-30T03:53:44.141Z,6.07
2023-04-30T03:56:17.704Z,6.00
2023-04-30T03:58:54.288Z,5.93
2023-04-30T04:01:25.228Z,5.82
2023-04-30T04:03:59.036Z,5.82
2023-04-30T04:06:31.888Z,5.83
2023-04-30T04:09:05.244Z,5.84
2023-04-30T04:11:37.321Z,5.86
2023-04-30T04:14:08.857Z,5.81
2023-04-30T04:16:42.534Z,5.85
2023-04-30T04:19:15.247Z,5.89
2023-04-30T04:21:48.183Z,5.95
2023-04-30T04:24:21.223Z,5.94
2023-04-30T04:26:53.626Z,5.96
2023-04-30T04:29:25.936Z,5.92
2023-04-30T04:32:00.115Z,5.93
2023-04-30T04:34:32.227Z,5.95
2023-04-30T04:37:04.539Z,5.99
2023-04-30T04:39:36.913Z,6.01
2023-04-30T04:42:09.246Z,5.95
2023-04-30T04:44:44.112Z,5.92
2023-04-30T04:47:19.249Z,5.93
2023-04-30T04:49:53.203Z,5.95
2023-04-30T04:52:25.722Z,5.92
2023-04-30T04:54:56.418Z,5.92
2023-04-30T04:57:28.151Z,5.95
2023-04-30T04:59:59.382Z,6.00
2023-04-30T05:02:33.320Z,6.04
2023-04-30T05:05:06.978Z,6.04
2023-04-30T05:07:39.467Z,6.08
2023-04-30T05:10:19.163Z,6.09
2023-04-30T05:12:51.583Z,6.11
2023-04-30T05:15:24.698Z,6.17
2023-04-30T05:17:56.903Z,6.18
2023-04-30T05:20:28.662Z,6.25
2023-04-30T05:23:01.848Z,6.29
2023-04-30T05:25:34.430Z,6.34
2023-04-30T05:28:09.438Z,6.38
2023-04-30T05:30:42.698Z,6.42
2023-04-30T05:33:18.072Z,6.46
2023-04-30T05:35:54.112Z,6.49
2023-04-30T05:38:28.775Z,6.50
2023-04-30T05:41:00.715Z,6.54
2023-04-30T05:43:34.660Z,6.57
2023-04-30T05:46:07.810Z,6.63
2023-04-30T05:48:41.521Z,6.72
2023-04-30T05:51:13.285Z,6.83
2023-04-30T05:53:45.814Z,6.97
2023-04-30T05:56:19.205Z,7.08
2023-04-30T05:58:52.517Z,7.16
2023-04-30T06:01:28.921Z,7.16
2023-04-30T06:04:05.634Z,7.17
2023-04-30T06:06:38.564Z,7.20
2023-04-30T06:09:11.004Z,7.26
2023-04-30T06:11:50.641Z,7.29
2023-04-30T06:14:23.630Z,7.32
2023-04-30T06:16:56.993Z,7.37
2023-04-30T06:19:29.308Z,7.42
2023-04-30T06:22:01.158Z,7.46
2023-04-30T06:24:32.709Z,7.50
2023-04-30T06:27:05.913Z,7.56
2023-04-30T06:29:39.309Z,7.65
2023-04-30T06:32:11.839Z,7.69
2023-04-30T06:34:45.571Z,7.66
2023-04-30T06:37:18.928Z,7.66
2023-04-30T06:39:52.609Z,7.70
2023-04-30T06:42:27.435Z,7.77
2023-04-30T06:44:58.232Z,7.85
2023-04-30T06:47:34.878Z,7.93
2023-04-30T06:50:08.981Z,7.99
2023-04-30T06:52:42.007Z,8.06
2023-04-30T06:55:15.466Z,8.05
2023-04-30T06:57:50.796Z,8.06
2023-04-30T07:00:23.330Z,8.08
2023-04-30T07:02:56.401Z,8.17
2023-04-30T07:05:28.657Z,8.22
2023-04-30T07:08:05.304Z,8.26
2023-04-30T07:10:36.799Z,8.31
2023-04-30T07:13:09.952Z,8.36
2023-04-30T07:15:42.747Z,8.42
2023-04-30T07:18:14.491Z,8.42
2023-04-30T07:20:48.269Z,8.47
2023-04-30T07:23:22.229Z,8.56
2023-04-30T07:25:54.861Z,8.62
2023-04-30T07:28:29.298Z,8.64
2023-04-30T07:31:03.799Z,8.63
2023-04-30T07:33:41.215Z,8.65
2023-04-30T07:36:16.123Z,8.72
2023-04-30T07:38:48.944Z,8.79
2023-04-30T07:41:25.953Z,8.87
2023-04-30T07:43:58.779Z,8.93
2023-04-30T07:46:31.845Z,9.01
2023-04-30T07:49:04.318Z,9.07
2023-04-30T07:51:38.244Z,9.10
2023-04-30T07:54:12.064Z,9.22
2023-04-30T07:56:44.533Z,9.27
2023-04-30T07:59:17.492Z,9.31
2023-04-30T08:01:50.368Z,9.37
2023-04-30T08:04:22.153Z,9.45
2023-04-30T08:06:56.689Z,9.46
2023-04-30T08:09:31.480Z,9.46
2023-04-30T08:12:04.818Z,9.47
2023-04-30T08:15:00.489Z,9.49
2023-04-30T08:17:33.581Z,9.53
2023-04-30T08:20:10.671Z,9.59
2023-04-30T08:22:42.794Z,9.69
2023-04-30T08:25:17.909Z,9.75
2023-04-30T08:27:52.557Z,9.78
2023-04-30T08:30:22.884Z,9.91
2023-04-30T08:32:57.546Z,10.00
2023-04-30T08:35:31.270Z,10.08
2023-04-30T08:38:04.187Z,10.13
2023-04-30T08:40:51.122Z,10.19
2023-04-30T08:43:28.126Z,10.18
2023-04-30T08:46:00.582Z,10.20
2023-04-30T08:48:32.628Z,10.19
2023-04-30T08:51:06.454Z,10.23
2023-04-30T08:53:42.545Z,10.30
2023-04-30T08:56:15.221Z,10.30
2023-04-30T08:58:52.715Z,10.25
2023-04-30T09:01:26.225Z,10.30
2023-04-30T09:03:59.610Z,10.37
2023-04-30T09:06:33.696Z,10.41
2023-04-30T09:09:13.483Z,10.46
2023-04-30T09:11:45.024Z,10.56
2023-04-30T09:14:28.023Z,10.61
2023-04-30T09:17:00.251Z,10.71
2023-04-30T09:19:33.226Z,10.79
2023-04-30T09:22:24.828Z,10.80
2023-04-30T09:24:57.595Z,10.86
2023-04-30T09:27:32.547Z,10.95
2023-04-30T09:30:05.781Z,11.03
2023-04-30T09:32:58.533Z,11.08
2023-04-30T09:35:34.305Z,11.13
2023-04-30T09:38:05.899Z,11.18
2023-04-30T09:40:42.544Z,11.18
2023-04-30T09:43:14.590Z,11.16
2023-04-30T09:45:50.280Z,11.17
2023-04-30T09:48:25.455Z,11.17
2023-04-30T09:50:58.142Z,11.14
2023-04-30T09:53:32.447Z,11.15
2023-04-30T09:56:08.147Z,11.21
2023-04-30T09:58:46.239Z,11.25
2023-04-30T10:01:20.774Z,11.32
2023-04-30T10:03:53.723Z,11.39
2023-04-30T10:06:30.005Z,11.49
2023-04-30T10:09:04.070Z,11.51
2023-04-30T10:11:39.247Z,11.52
2023-04-30T10:14:14.489Z,11.53
2023-04-30T10:16:52.727Z,11.53
2023-04-30T10:19:27.550Z,11.55
2023-04-30T10:21:59.490Z,11.60
2023-04-30T10:24:33.183Z,11.71
2023-04-30T10:27:05.982Z,11.81
2023-04-30T10:29:36.940Z,11.88
2023-04-30T10:32:09.973Z,11.89
2023-04-30T10:34:51.070Z,11.94
2023-04-30T10:37:30.893Z,12.00
2023-04-30T10:40:05.391Z,11.97
2023-04-30T10:42:39.676Z,11.99
2023-04-30T10:45:18.814Z,12.05
2023-04-30T10:47:52.076Z,12.05
2023-04-30T10:50:30.679Z,12.15
2023-04-30T10:53:07.309Z,12.17
2023-04-30T10:55:51.821Z,12.15
2023-04-30T10:58:31.098Z,12.12
2023-04-30T11:01:08.853Z,12.15
2023-04-30T11:03:44.500Z,12.21
2023-04-30T11:06:19.469Z,12.23
2023-04-30T11:08:52.381Z,12.25
2023-04-30T11:11:23.796Z,12.30
2023-04-30T11:14:02.375Z,12.36
2023-04-30T11:16:35.987Z,12.47
2023-04-30T11:19:13.872Z,12.58
2023-04-30T11:22:19.264Z,12.56
2023-04-30T11:25:20.675Z,12.52
2023-04-30T11:27:53.410Z,12.52
2023-04-30T11:30:26.505Z,12.55
2023-04-30T11:33:03.804Z,12.60
2023-04-30T11:35:36.527Z,12.63
2023-04-30T11:38:09.139Z,12.69
2023-04-30T11:40:45.763Z,12.69
2023-04-30T11:43:25.644Z,12.74
2023-04-30T11:46:23.953Z,12.87
2023-04-30T11:48:59.088Z,12.93
2023-04-30T11:51:31.330Z,12.89
2023-04-30T11:54:09.512Z,12.82
2023-04-30T11:56:41.711Z,12.87
2023-04-30T11:59:17.782Z,12.96
2023-04-30T12:01:51.483Z,13.00
2023-04-30T12:04:25.768Z,13.07
2023-04-30T12:06:59.237Z,13.10
2023-04-30T12:09:32.087Z,13.05
2023-04-30T12:12:05.191Z,13.02
2023-04-30T12:14:38.450Z,13.06
2023-04-30T12:17:34.230Z,13.10
2023-04-30T12:20:06.884Z,13.09
2023-04-30T12:22:40.955Z,13.13
2023-04-30T12:25:17.966Z,13.22
2023-04-30T12:27:51.477Z,13.23
2023-04-30T12:30:28.138Z,13.20
2023-04-30T12:33:03.062Z,13.24
2023-04-30T12:35:35.577Z,13.27
2023-04-30T12:38:10.140Z,13.23
2023-04-30T12:40:47.767Z,13.22
2023-04-30T12:43:22.005Z,13.28
2023-04-30T12:45:56.564Z,13.34
2023-04-30T12:48:30.113Z,13.38
2023-04-30T12:51:04.397Z,13.43
2023-04-30T12:53:35.325Z,13.47
2023-04-30T12:56:17.796Z,13.54
2023-04-30T12:58:50.780Z,13.63
2023-04-30T13:01:23.812Z,13.71
2023-04-30T13:03:58.068Z,13.74
2023-04-30T13:06:30.736Z,13.76
2023-04-30T13:09:03.978Z,13.76
2023-04-30T13:11:36.282Z,13.73
2023-04-30T13:14:06.994Z,13.75
2023-04-30T13:16:40.313Z,13.72
2023-04-30T13:19:12.361Z,13.62
2023-04-30T13:21:46.429Z,13.58
2023-04-30T13:24:18.314Z,13.65
2023-04-30T13:26:50.197Z,13.71
2023-04-30T13:29:22.911Z,13.74
2023-04-30T13:31:55.567Z,13.76
2023-04-30T13:34:26.651Z,13.85
2023-04-30T13:37:00.119Z,13.94
2023-04-30T13:39:36.370Z,13.92
2023-04-30T13:42:08.452Z,13.82
2023-04-30T13:44:41.248Z,13.78
2023-04-30T13:47:14.563Z,13.72
2023-04-30T13:49:47.927Z,13.67
2023-04-30T13:52:20.044Z,13.70
2023-04-30T13:54:52.738Z,13.72
2023-04-30T13:57:25.728Z,13.77
2023-04-30T13:59:58.273Z,13.85
2023-04-30T14:02:31.564Z,13.85
2023-04-30T14:05:06.225Z,13.87
2023-04-30T14:07:39.875Z,13.91
2023-04-30T14:10:14.245Z,13.89
2023-04-30T14:12:45.569Z,13.79
2023-04-30T14:15:18.717Z,13.76
2023-04-30T14:17:49.829Z,13.76
2023-04-30T14:20:23.884Z,13.75
2023-04-30T14:22:56.649Z,13.71
2023-04-30T14:25:28.533Z,13.70
2023-04-30T14:28:02.060Z,13.72
2023-04-30T14:30:35.212Z,13.78
2023-04-30T14:33:06.554Z,13.85
2023-04-30T14:35:38.262Z,13.84
2023-04-30T14:38:09.440Z,13.88
2023-04-30T14:40:42.112Z,13.92
2023-04-30T14:43:17.611Z,13.97
2023-04-30T14:45:48.979Z,13.95
2023-04-30T14:48:20.057Z,13.97
2023-04-30T14:50:52.290Z,14.02
2023-04-30T14:53:24.419Z,14.06
2023-04-30T14:55:57.502Z,14.11
2023-04-30T14:58:28.434Z,14.13
2023-04-30T15:01:01.566Z,14.15
2023-04-30T15:03:33.629Z,14.22
2023-04-30T15:06:06.967Z,14.28
2023-04-30T15:08:40.904Z,14.30
2023-04-30T15:11:13.278Z,14.33
2023-04-30T15:13:46.143Z,14.30
2023-04-30T15:16:18.770Z,14.32
2023-04-30T15:18:52.017Z,14.36
2023-04-30T15:21:25.086Z,14.37
2023-04-30T15:24:00.331Z,14.38
2023-04-30T15:26:32.690Z,14.38
2023-04-30T15:29:05.102Z,14.39
2023-04-30T15:31:35.777Z,14.39
2023-04-30T15:34:08.247Z,14.34
2023-04-30T15:36:42.744Z,14.31
2023-04-30T15:39:16.181Z,14.30
2023-04-30T15:41:48.887Z,14.26
2023-04-30T15:44:20.648Z,14.30
2023-04-30T15:46:52.015Z,14.33
2023-04-30T15:49:27.295Z,14.33
2023-04-30T15:51:59.133Z,14.33
2023-04-30T15:54:30.404Z,14.38
2023-04-30T15:57:06.262Z,14.41
2023-04-30T15:59:38.860Z,14.48
2023-04-30T16:02:09.483Z,14.48
2023-04-30T16:04:40.829Z,14.52
2023-04-30T16:07:15.143Z,14.52
2023-04-30T16:09:48.664Z,14.56
2023-04-30T16:12:19.254Z,14.63
2023-04-30T16:14:51.521Z,14.70
2023-04-30T16:17:25.043Z,14.74
2023-04-30T16:19:56.382Z,14.72
2023-04-30T16:22:30.479Z,14.80
2023-04-30T16:25:07.173Z,14.83
2023-04-30T16:27:39.663Z,14.84
2023-04-30T16:30:15.035Z,14.85
2023-04-30T16:32:46.470Z,14.86
2023-04-30T16:35:18.468Z,14.90
2023-04-30T16:37:51.125Z,14.94
2023-04-30T16:40:24.566Z,14.93
2023-04-30T16:42:59.154Z,14.76
2023-04-30T16:45:32.760Z,14.66
2023-04-30T16:48:04.186Z,14.63
2023-04-30T16:50:39.294Z,14.63
2023-04-30T16:53:11.934Z,14.55
2023-04-30T16:55:44.819Z,14.42
2023-04-30T16:58:17.676Z,14.34
2023-04-30T17:00:55.505Z,14.28
2023-04-30T17:03:30.166Z,14.17
2023-04-30T17:06:02.464Z,14.11
2023-04-30T17:08:34.698Z,14.10
2023-04-30T17:11:06.664Z,13.94
2023-04-30T17:13:39.692Z,13.86
2023-04-30T17:16:11.614Z,13.79
2023-04-30T17:18:44.292Z,13.74
2023-04-30T17:21:15.587Z,13.65
2023-04-30T17:23:49.660Z,13.57
2023-04-30T17:26:23.094Z,13.51
2023-04-30T17:28:59.321Z,13.45
2023-04-30T17:31:31.569Z,13.38
2023-04-30T17:34:05.049Z,13.33
2023-04-30T17:36:36.129Z,13.29
2023-04-30T17:39:09.498Z,13.29
2023-04-30T17:41:41.996Z,13.23
2023-04-30T17:44:14.259Z,13.15
2023-04-30T17:46:45.927Z,13.08
2023-04-30T17:49:17.709Z,13.02
2023-04-30T17:51:48.661Z,12.93
2023-04-30T17:54:22.083Z,12.83
2023-04-30T17:56:52.721Z,12.75
2023-04-30T17:59:25.739Z,12.70
2023-04-30T18:02:00.020Z,12.64
2023-04-30T18:04:33.446Z,12.58
2023-04-30T18:07:05.420Z,12.50
2023-04-30T18:09:37.998Z,12.48
2023-04-30T18:12:08.678Z,12.44
2023-04-30T18:14:41.291Z,12.36
2023-04-30T18:17:16.035Z,12.25
2023-04-30T18:19:50.442Z,12.16
2023-04-30T18:22:21.827Z,12.16
2023-04-30T18:24:56.585Z,12.10
2023-04-30T18:27:34.246Z,12.03
2023-04-30T18:30:08.239Z,11.92
2023-04-30T18:32:42.243Z,11.81
2023-04-30T18:35:13.610Z,11.71
2023-04-30T18:37:47.689Z,11.62
2023-04-30T18:40:20.398Z,11.52
2023-04-30T18:42:54.036Z,11.44
2023-04-30T18:45:28.704Z,11.40
2023-04-30T18:48:00.714Z,11.36
2023-04-30T18:50:33.219Z,11.31
2023-04-30T18:53:24.533Z,11.26
2023-04-30T18:55:58.800Z,11.22
2023-04-30T18:58:30.363Z,11.13
2023-04-30T19:01:04.621Z,11.11
2023-04-30T19:03:36.496Z,11.05
2023-04-30T19:06:08.912Z,10.98
2023-04-30T19:08:41.167Z,10.88
2023-04-30T19:11:12.871Z,10.75
2023-04-30T19:13:46.491Z,10.65
2023-04-30T19:16:18.336Z,10.59
2023-04-30T19:18:52.285Z,10.58
2023-04-30T19:21:25.481Z,10.55
2023-04-30T19:23:59.048Z,10.46
2023-04-30T19:26:37.361Z,10.41
2023-04-30T19:29:09.164Z,10.31
2023-04-30T19:31:42.375Z,10.25
2023-04-30T19:34:13.889Z,10.16
2023-04-30T19:36:46.515Z,10.11
2023-04-30T19:39:21.450Z,10.02
2023-04-30T19:41:53.418Z,9.95
2023-04-30T19:44:25.941Z,9.92
2023-04-30T19:46:59.171Z,9.86
2023-04-30T19:49:33.172Z,9.78
2023-04-30T19:52:09.613Z,9.74
2023-04-30T19:54:42.940Z,9.68
2023-04-30T19:57:23.075Z,9.61
2023-04-30T19:59:57.327Z,9.59
2023-04-30T20:02:34.293Z,9.54
2023-04-30T20:05:14.256Z,9.48
2023-04-30T20:07:48.312Z,9.42
2023-04-30T20:10:19.898Z,9.41
2023-04-30T20:12:55.880Z,9.39
2023-04-30T20:15:29.402Z,9.30
2023-04-30T20:18:01.835Z,9.28
2023-04-30T20:20:35.349Z,9.26
2023-04-30T20:23:37.440Z,9.24
2023-04-30T20:26:10.767Z,9.20
2023-04-30T20:28:44.238Z,9.18
2023-04-30T20:31:16.551Z,9.16
2023-04-30T20:33:51.933Z,9.09
2023-04-30T20:36:22.031Z,9.05
2023-04-30T20:38:55.930Z,9.03
2023-04-30T20:41:29.914Z,8.98
2023-04-30T20:44:03.080Z,8.98
2023-04-30T20:46:33.980Z,8.93
2023-04-30T20:49:05.864Z,8.90
2023-04-30T20:51:40.433Z,8.82
2023-04-30T20:54:12.364Z,8.74
2023-04-30T20:56:47.446Z,8.73
2023-04-30T20:59:18.308Z,8.73
2023-04-30T21:01:52.186Z,8.68
2023-04-30T21:04:26.054Z,8.67
2023-04-30T21:06:58.947Z,8.61
2023-04-30T21:09:35.207Z,8.52
2023-04-30T21:12:06.919Z,8.41
2023-04-30T21:14:39.821Z,8.32
2023-04-30T21:17:18.688Z,8.27
2023-04-30T21:19:52.374Z,8.25
2023-04-30T21:22:24.655Z,8.19
2023-04-30T21:24:58.631Z,8.16
2023-04-30T21:27:30.662Z,8.11
2023-04-30T21:30:01.686Z,8.07
2023-04-30T21:32:33.781Z,8.02
2023-04-30T21:35:07.201Z,7.95
2023-04-30T21:37:41.048Z,7.89
2023-04-30T21:40:16.512Z,7.84
2023-04-30T21:42:50.196Z,7.76
2023-04-30T21:45:24.030Z,7.69
2023-04-30T21:47:56.491Z,7.64
2023-04-30T21:50:28.243Z,7.60
2023-04-30T21:53:02.159Z,7.56
2023-04-30T21:55:33.711Z,7.52
2023-04-30T21:58:06.749Z,7.46
2023-04-30T22:00:45.072Z,7.36
2023-04-30T22:03:17.139Z,7.29
2023-04-30T22:05:48.294Z,7.24
2023-04-30T22:08:25.090Z,7.23
2023-04-30T22:11:01.589Z,7.18
2023-04-30T22:13:36.376Z,7.14
2023-04-30T22:16:11.466Z,7.14
2023-04-30T22:18:53.215Z,7.11
2023-04-30T22:21:26.822Z,7.07
2023-04-30T22:24:00.224Z,7.01
2023-04-30T22:26:32.423Z,6.97
2023-04-30T22:29:04.343Z,6.94
2023-04-30T22:31:36.451Z,6.90
2023-04-30T22:34:12.120Z,6.82
2023-04-30T22:36:47.194Z,6.76
2023-04-30T22:39:21.519Z,6.69
2023-04-30T22:41:54.328Z,6.62
2023-04-30T22:44:26.438Z,6.55
2023-04-30T22:47:00.606Z,6.52
2023-04-30T22:49:37.194Z,6.48
2023-04-30T22:52:08.815Z,6.42
2023-04-30T22:54:42.144Z,6.33
2023-04-30T22:57:14.611Z,6.27
2023-04-30T22:59:48.256Z,6.18
2023-04-30T23:02:21.736Z,6.13
2023-04-30T23:04:53.742Z,6.09
2023-04-30T23:07:28.142Z,6.09
2023-04-30T23:10:00.950Z,6.05
2023-04-30T23:12:35.999Z,5.90
2023-04-30T23:15:11.687Z,5.79
2023-04-30T23:17:46.768Z,5.76
2023-04-30T23:20:18.909Z,5.73
2023-04-30T23:22:52.282Z,5.73
2023-04-30T23:25:26.382Z,5.68
2023-04-30T23:28:01.112Z,5.64
2023-04-30T23:30:32.051Z,5.62
2023-04-30T23:33:04.367Z,5.59
2023-04-30T23:35:36.041Z,5.56
2023-04-30T23:38:08.234Z,5.59
2023-04-30T23:40:44.920Z,5.55
2023-04-30T23:43:18.057Z,5.60
2023-04-30T23:45:52.061Z,5.60
2023-04-30T23:48:27.254Z,5.58
2023-04-30T23:51:06.128Z,5.60
2023-04-30T23:53:39.630Z,5.59
2023-04-30T23:56:10.546Z,5.56
2023-04-30T23:58:44.961Z,5.55
